createdAt,value
2022-12-29T00:00:07.912Z,31.23
2022-12-29T00:02:34.775Z,44.30
2022-12-29T00:05:01.556Z,28.10
2022-12-29T00:07:28.497Z,61.43
2022-12-29T00:09:55.177Z,114.60
2022-12-29T00:12:21.980Z,52.70
2022-12-29T00:15:07.360Z,74.10
2022-12-29T00:17:34.097Z,31.63
2022-12-29T00:20:19.199Z,98.83
2022-12-29T00:23:04.549Z,11.17
2022-12-29T00:25:57.477Z,83.57
2022-12-29T00:28:42.804Z,68.93
2022-12-29T00:31:31.907Z,39.80
2022-12-29T00:34:17.332Z,65.63
2022-12-29T00:36:45.123Z,26.23
2022-12-29T00:39:32.868Z,17.70
2022-12-29T00:42:25.607Z,62.50
2022-12-29T00:44:52.393Z,7.00
2022-12-29T00:47:19.069Z,9.03
2022-12-29T00:49:45.763Z,13.57
2022-12-29T00:52:13.340Z,25.23
2022-12-29T00:54:41.655Z,9.93
2022-12-29T00:57:10.438Z,46.57
2022-12-29T00:59:38.269Z,43.40
2022-12-29T01:02:05.189Z,11.00
2022-12-29T01:04:32.192Z,9.10
2022-12-29T01:06:59.699Z,11.43
2022-12-29T01:09:45.078Z,8.43
2022-12-29T01:12:12.341Z,19.80
2022-12-29T01:14:39.612Z,12.83
2022-12-29T01:17:06.460Z,7.87
2022-12-29T01:19:33.455Z,16.00
2022-12-29T01:22:00.784Z,19.43
2022-12-29T01:24:27.656Z,5.90
2022-12-29T01:26:55.721Z,8.37
2022-12-29T01:29:22.801Z,8.00
2022-12-29T01:31:51.017Z,9.80
2022-12-29T01:34:18.734Z,12.53
2022-12-29T01:36:45.573Z,9.60
2022-12-29T01:39:12.299Z,14.27
2022-12-29T01:41:39.083Z,6.83
2022-12-29T01:44:44.043Z,12.57
2022-12-29T01:47:11.032Z,7.20
2022-12-29T01:49:37.730Z,9.27
2022-12-29T01:52:07.711Z,10.13
2022-12-29T01:54:42.440Z,8.43
2022-12-29T01:57:13.112Z,8.83
2022-12-29T01:59:44.729Z,8.20
2022-12-29T02:02:11.944Z,22.20
2022-12-29T02:04:41.832Z,15.10
2022-12-29T02:07:19.270Z,9.77
2022-12-29T02:09:49.374Z,11.27
2022-12-29T02:12:17.811Z,12.47
2022-12-29T02:14:45.047Z,62.30
2022-12-29T02:17:35.301Z,36.10
2022-12-29T02:20:35.589Z,36.93
2022-12-29T02:23:41.672Z,11.97
2022-12-29T02:26:46.176Z,9.07
2022-12-29T02:29:22.469Z,11.40
2022-12-29T02:32:01.559Z,10.67
2022-12-29T02:34:35.359Z,16.40
2022-12-29T02:37:12.387Z,15.03
2022-12-29T02:39:43.030Z,18.47
2022-12-29T02:42:34.049Z,17.23
2022-12-29T02:45:09.679Z,8.60
2022-12-29T02:47:50.007Z,6.03
2022-12-29T02:50:22.338Z,8.73
2022-12-29T02:52:53.213Z,6.13
2022-12-29T02:55:19.970Z,93.60
2022-12-29T02:57:46.665Z,12.80
2022-12-29T03:00:15.908Z,8.10
2022-12-29T03:03:02.614Z,10.30
2022-12-29T03:05:51.079Z,8.50
2022-12-29T03:08:33.408Z,7.27
2022-12-29T03:11:32.989Z,6.40
2022-12-29T03:14:22.781Z,7.70
2022-12-29T03:16:52.551Z,7.33
2022-12-29T03:19:27.847Z,4.70
2022-12-29T03:22:21.852Z,6.50
2022-12-29T03:24:54.128Z,10.03
2022-12-29T03:27:24.035Z,9.23
2022-12-29T03:29:58.257Z,14.03
2022-12-29T03:32:28.542Z,23.40
2022-12-29T03:34:56.227Z,19.80
2022-12-29T03:37:26.698Z,48.57
2022-12-29T03:39:53.448Z,38.43
2022-12-29T03:42:21.766Z,122.07
2022-12-29T03:44:48.689Z,75.07
2022-12-29T03:47:16.259Z,7.53
2022-12-29T03:49:43.940Z,31.10
2022-12-29T03:52:10.714Z,23.70
2022-12-29T03:54:37.410Z,5.43
2022-12-29T03:57:04.294Z,6.30
2022-12-29T03:59:30.995Z,29.10
2022-12-29T04:01:57.893Z,8.87
2022-12-29T04:04:24.707Z,5.40
2022-12-29T04:06:51.521Z,16.03
2022-12-29T04:09:18.258Z,11.10
2022-12-29T04:11:44.995Z,9.80
2022-12-29T04:14:11.736Z,19.73
2022-12-29T04:16:40.004Z,7.03
2022-12-29T04:19:07.487Z,12.63
2022-12-29T04:21:34.359Z,6.47
2022-12-29T04:24:01.142Z,6.63
2022-12-29T04:26:27.841Z,12.77
2022-12-29T04:28:54.580Z,11.53
2022-12-29T04:31:21.357Z,15.97
2022-12-29T04:33:48.156Z,7.70
2022-12-29T04:36:14.892Z,11.57
2022-12-29T04:38:41.671Z,4.70
2022-12-29T04:41:08.363Z,5.60
2022-12-29T04:43:35.092Z,7.63
2022-12-29T04:46:01.806Z,6.53
2022-12-29T04:48:28.640Z,6.47
2022-12-29T04:50:55.319Z,7.30
2022-12-29T04:53:22.069Z,29.57
2022-12-29T04:55:53.068Z,13.63
2022-12-29T04:58:23.052Z,6.37
2022-12-29T05:00:51.027Z,77.57
2022-12-29T05:03:17.783Z,8.50
2022-12-29T05:05:45.255Z,5.53
2022-12-29T05:08:11.990Z,20.47
2022-12-29T05:10:39.085Z,14.43
2022-12-29T05:13:05.806Z,21.17
2022-12-29T05:15:33.131Z,8.10
2022-12-29T05:18:00.290Z,11.93
2022-12-29T05:20:27.145Z,10.10
2022-12-29T05:22:53.775Z,5.10
2022-12-29T05:25:20.396Z,7.80
2022-12-29T05:27:47.064Z,3.37
2022-12-29T05:30:13.842Z,4.70
2022-12-29T05:32:40.971Z,14.40
2022-12-29T05:35:08.108Z,5.43
2022-12-29T05:37:34.869Z,19.87
2022-12-29T05:40:01.575Z,6.40
2022-12-29T05:42:28.379Z,4.57
2022-12-29T05:44:55.076Z,4.90
2022-12-29T05:47:21.790Z,5.63
2022-12-29T05:49:48.560Z,3.47
2022-12-29T05:52:15.164Z,12.40
2022-12-29T05:54:41.950Z,7.10
2022-12-29T05:57:08.774Z,7.07
2022-12-29T05:59:35.391Z,3.67
2022-12-29T06:02:02.333Z,7.10
2022-12-29T06:04:29.081Z,5.00
2022-12-29T06:06:55.767Z,4.63
2022-12-29T06:09:22.375Z,3.93
2022-12-29T06:11:49.048Z,9.30
2022-12-29T06:14:15.716Z,3.23
2022-12-29T06:16:43.142Z,8.70
2022-12-29T06:19:09.888Z,3.83
2022-12-29T06:21:36.764Z,4.77
2022-12-29T06:24:03.650Z,3.07
2022-12-29T06:26:30.977Z,9.43
2022-12-29T06:28:57.675Z,6.03
2022-12-29T06:31:24.372Z,11.63
2022-12-29T06:33:51.057Z,4.10
2022-12-29T06:36:17.724Z,4.33
2022-12-29T06:38:44.734Z,6.37
2022-12-29T06:41:11.325Z,7.90
2022-12-29T06:43:39.372Z,5.57
2022-12-29T06:46:06.583Z,7.70
2022-12-29T06:48:33.389Z,5.87
2022-12-29T06:50:59.924Z,11.63
2022-12-29T06:53:26.593Z,14.20
2022-12-29T06:55:53.363Z,14.00
2022-12-29T06:58:20.160Z,6.03
2022-12-29T07:00:46.963Z,16.57
2022-12-29T07:03:13.727Z,6.43
2022-12-29T07:05:40.760Z,13.40
2022-12-29T07:08:07.436Z,7.37
2022-12-29T07:10:34.357Z,5.97
2022-12-29T07:13:01.138Z,9.70
2022-12-29T07:15:27.789Z,10.43
2022-12-29T07:17:54.634Z,43.13
2022-12-29T07:20:26.552Z,15.63
2022-12-29T07:22:54.057Z,8.60
2022-12-29T07:25:20.843Z,37.83
2022-12-29T07:27:47.661Z,34.97
2022-12-29T07:30:15.216Z,11.73
2022-12-29T07:32:42.252Z,19.87
2022-12-29T07:35:09.611Z,11.20
2022-12-29T07:37:36.484Z,17.73
2022-12-29T07:40:04.550Z,21.27
2022-12-29T07:42:32.885Z,20.50
2022-12-29T07:44:59.727Z,13.93
2022-12-29T07:47:27.320Z,13.60
2022-12-29T07:49:54.364Z,13.33
2022-12-29T07:52:21.040Z,7.17
2022-12-29T07:54:47.764Z,7.00
2022-12-29T07:57:14.505Z,11.13
2022-12-29T07:59:41.641Z,15.30
2022-12-29T08:02:11.978Z,6.97
2022-12-29T08:04:39.498Z,10.63
2022-12-29T08:07:06.432Z,11.07
2022-12-29T08:09:33.114Z,16.90
2022-12-29T08:11:59.954Z,12.67
2022-12-29T08:14:26.808Z,9.80
2022-12-29T08:16:53.683Z,15.00
2022-12-29T08:19:20.455Z,9.60
2022-12-29T08:21:47.393Z,7.97
2022-12-29T08:24:14.190Z,8.33
2022-12-29T08:26:40.899Z,5.77
2022-12-29T08:29:07.650Z,6.37
2022-12-29T08:31:34.384Z,9.00
2022-12-29T08:34:01.308Z,7.77
2022-12-29T08:36:28.087Z,6.67
2022-12-29T08:38:54.729Z,4.90
2022-12-29T08:41:21.476Z,5.30
2022-12-29T08:43:50.040Z,5.57
2022-12-29T08:46:17.800Z,6.60
2022-12-29T08:48:44.685Z,6.83
2022-12-29T08:51:11.364Z,6.43
2022-12-29T08:53:38.012Z,9.80
2022-12-29T08:56:05.868Z,10.60
2022-12-29T08:58:32.726Z,9.93
2022-12-29T09:01:00.253Z,11.70
2022-12-29T09:03:54.905Z,13.53
2022-12-29T09:06:15.273Z,7.73
2022-12-29T09:08:41.996Z,8.73
2022-12-29T09:11:10.686Z,9.20
2022-12-29T09:13:37.570Z,6.67
2022-12-29T09:16:04.705Z,11.10
2022-12-29T09:18:31.616Z,6.23
2022-12-29T09:21:00.199Z,19.67
2022-12-29T09:23:27.790Z,11.50
2022-12-29T09:25:55.105Z,10.40
2022-12-29T09:28:22.893Z,16.40
2022-12-29T09:30:51.318Z,9.80
2022-12-29T09:33:18.723Z,10.57
2022-12-29T09:35:47.160Z,8.13
2022-12-29T09:38:13.852Z,11.63
2022-12-29T09:40:40.909Z,9.57
2022-12-29T09:43:45.383Z,9.83
2022-12-29T09:46:28.368Z,8.27
2022-12-29T09:48:57.828Z,12.97
2022-12-29T09:51:25.283Z,9.47
2022-12-29T09:54:01.975Z,9.00
2022-12-29T09:56:28.973Z,7.83
2022-12-29T09:59:00.451Z,9.43
2022-12-29T10:01:50.527Z,14.97
2022-12-29T10:04:17.345Z,6.77
2022-12-29T10:07:27.380Z,9.97
2022-12-29T10:09:54.556Z,10.50
2022-12-29T10:12:40.087Z,20.50
2022-12-29T10:15:26.309Z,36.03
2022-12-29T10:18:19.509Z,15.97
2022-12-29T10:20:58.135Z,33.80
2022-12-29T10:23:32.903Z,9.27
2022-12-29T10:26:00.842Z,7.13
2022-12-29T10:28:41.708Z,5.90
2022-12-29T10:31:21.118Z,8.50
2022-12-29T10:33:52.286Z,7.67
2022-12-29T10:36:33.967Z,7.37
2022-12-29T10:39:19.577Z,13.90
2022-12-29T10:41:51.273Z,16.00
2022-12-29T10:44:19.193Z,19.63
2022-12-29T10:46:58.770Z,15.80
2022-12-29T10:49:28.100Z,10.47
2022-12-29T10:51:57.157Z,15.83
2022-12-29T10:54:31.495Z,11.13
2022-12-29T10:57:03.459Z,14.73
2022-12-29T10:59:36.339Z,10.73
2022-12-29T11:02:23.663Z,12.70
2022-12-29T11:05:04.159Z,11.63
2022-12-29T11:07:31.484Z,9.33
2022-12-29T11:10:22.324Z,10.50
2022-12-29T11:13:12.894Z,7.13
2022-12-29T11:15:43.693Z,4.97
2022-12-29T11:18:33.958Z,7.60
2022-12-29T11:21:03.902Z,11.70
2022-12-29T11:23:33.896Z,14.57
2022-12-29T11:26:12.512Z,18.00
2022-12-29T11:28:40.065Z,18.33
2022-12-29T11:31:08.433Z,10.60
2022-12-29T11:33:37.141Z,12.53
2022-12-29T11:36:07.567Z,20.20
2022-12-29T11:38:40.106Z,12.13
2022-12-29T11:41:07.132Z,17.63
2022-12-29T11:43:43.228Z,14.83
2022-12-29T11:46:38.640Z,13.50
2022-12-29T11:49:05.762Z,10.23
2022-12-29T11:51:49.053Z,11.00
2022-12-29T11:54:22.222Z,12.87
2022-12-29T11:56:49.965Z,8.37
2022-12-29T11:59:39.913Z,8.00
2022-12-29T12:02:26.386Z,9.00
2022-12-29T12:05:02.082Z,8.17
2022-12-29T12:08:08.326Z,11.87
2022-12-29T12:10:45.869Z,30.80
2022-12-29T12:13:35.892Z,10.00
2022-12-29T12:16:10.758Z,9.40
2022-12-29T12:18:48.025Z,10.07
2022-12-29T12:21:30.626Z,12.70
2022-12-29T12:24:06.627Z,14.67
2022-12-29T12:26:42.268Z,14.40
2022-12-29T12:29:15.775Z,21.97
2022-12-29T12:31:56.705Z,26.43
2022-12-29T12:34:39.640Z,14.53
2022-12-29T12:37:12.405Z,16.20
2022-12-29T12:39:59.137Z,16.07
2022-12-29T12:42:47.253Z,24.00
2022-12-29T12:45:33.522Z,12.47
2022-12-29T12:48:19.413Z,29.17
2022-12-29T12:50:57.532Z,37.90
2022-12-29T12:53:32.934Z,22.93
2022-12-29T12:56:15.015Z,32.47
2022-12-29T12:58:51.969Z,18.63
2022-12-29T13:01:18.762Z,21.37
2022-12-29T13:03:57.817Z,20.53
2022-12-29T13:06:33.742Z,25.30
2022-12-29T13:09:04.885Z,18.87
2022-12-29T13:12:22.801Z,14.57
2022-12-29T13:15:04.712Z,12.63
2022-12-29T13:17:43.030Z,18.50
2022-12-29T13:20:28.007Z,14.53
2022-12-29T13:23:28.529Z,14.07
2022-12-29T13:26:15.815Z,13.90
2022-12-29T13:28:54.205Z,15.37
2022-12-29T13:31:42.719Z,23.33
2022-12-29T13:34:30.234Z,13.97
2022-12-29T13:37:03.289Z,21.23
2022-12-29T13:39:40.359Z,41.83
2022-12-29T13:42:07.277Z,19.07
2022-12-29T13:44:38.735Z,23.57
2022-12-29T13:47:35.781Z,28.33
2022-12-29T13:50:04.918Z,13.57
2022-12-29T13:52:46.025Z,17.20
2022-12-29T13:55:30.454Z,14.60
2022-12-29T13:58:25.796Z,9.73
2022-12-29T14:01:20.619Z,10.93
2022-12-29T14:03:54.257Z,11.03
2022-12-29T14:06:30.404Z,7.10
2022-12-29T14:08:58.795Z,9.57
2022-12-29T14:11:32.691Z,10.73
2022-12-29T14:13:59.995Z,11.60
2022-12-29T14:16:37.325Z,10.10
2022-12-29T14:19:14.316Z,11.37
2022-12-29T14:21:41.683Z,8.73
2022-12-29T14:24:47.650Z,11.47
2022-12-29T14:27:14.289Z,10.93
2022-12-29T14:29:41.045Z,12.07
2022-12-29T14:32:26.200Z,11.40
2022-12-29T14:35:41.963Z,12.43
2022-12-29T14:38:23.067Z,10.37
2022-12-29T14:40:50.562Z,9.23
2022-12-29T14:43:27.470Z,10.20
2022-12-29T14:45:58.129Z,11.90
2022-12-29T14:48:38.355Z,9.53
2022-12-29T14:51:22.555Z,13.33
2022-12-29T14:53:52.485Z,9.80
2022-12-29T14:56:21.810Z,15.20
2022-12-29T14:58:57.977Z,8.50
2022-12-29T15:01:32.755Z,14.30
2022-12-29T15:04:04.916Z,12.40
2022-12-29T15:06:32.036Z,11.50
2022-12-29T15:09:06.143Z,14.07
2022-12-29T15:11:42.301Z,10.07
2022-12-29T15:14:32.724Z,11.80
2022-12-29T15:16:59.763Z,10.67
2022-12-29T15:19:27.976Z,11.50
2022-12-29T15:21:56.148Z,10.57
2022-12-29T15:24:23.593Z,13.00
2022-12-29T15:26:58.313Z,24.33
2022-12-29T15:29:34.095Z,14.47
2022-12-29T15:32:02.457Z,9.97
2022-12-29T15:34:32.394Z,18.17
2022-12-29T15:37:00.631Z,15.67
2022-12-29T15:39:32.249Z,11.17
2022-12-29T15:42:07.798Z,7.43
2022-12-29T15:44:39.876Z,10.20
2022-12-29T15:47:21.192Z,8.70
2022-12-29T15:50:00.411Z,10.77
2022-12-29T15:52:27.810Z,9.70
2022-12-29T15:54:54.983Z,9.33
2022-12-29T15:57:27.384Z,11.33
2022-12-29T15:59:55.045Z,14.80
2022-12-29T16:02:24.213Z,11.33
2022-12-29T16:05:18.597Z,13.73
2022-12-29T16:07:41.981Z,10.73
2022-12-29T16:10:34.656Z,9.23
2022-12-29T16:13:24.543Z,7.23
2022-12-29T16:15:54.239Z,7.67
2022-12-29T16:18:30.075Z,8.60
2022-12-29T16:20:57.800Z,6.00
2022-12-29T16:23:26.935Z,9.30
2022-12-29T16:25:58.916Z,10.37
2022-12-29T16:28:43.131Z,10.63
2022-12-29T16:31:23.141Z,9.83
2022-12-29T16:33:51.265Z,12.80
2022-12-29T16:36:26.397Z,10.10
2022-12-29T16:39:27.408Z,14.97
2022-12-29T16:41:55.216Z,25.10
2022-12-29T16:44:30.534Z,24.70
2022-12-29T16:47:12.539Z,24.80
2022-12-29T16:49:41.304Z,27.13
2022-12-29T16:52:14.904Z,27.87
2022-12-29T16:54:42.294Z,28.83
2022-12-29T16:57:10.275Z,23.83
2022-12-29T16:59:39.661Z,24.83
2022-12-29T17:02:09.799Z,24.47
2022-12-29T17:04:36.950Z,26.57
2022-12-29T17:07:03.780Z,28.57
2022-12-29T17:09:31.689Z,26.27
2022-12-29T17:12:08.758Z,31.70
2022-12-29T17:14:52.905Z,23.73
2022-12-29T17:17:32.844Z,19.57
2022-12-29T17:20:14.667Z,26.60
2022-12-29T17:22:41.343Z,20.00
2022-12-29T17:25:13.255Z,25.97
2022-12-29T17:27:47.832Z,26.20
2022-12-29T17:30:27.088Z,31.10
2022-12-29T17:33:05.199Z,29.30
2022-12-29T17:35:31.804Z,42.17
2022-12-29T17:37:58.419Z,79.37
2022-12-29T17:40:27.950Z,87.83
2022-12-29T17:42:56.542Z,45.43
2022-12-29T17:45:28.705Z,40.23
2022-12-29T17:47:55.868Z,32.37
2022-12-29T17:50:25.170Z,31.03
2022-12-29T17:53:00.111Z,34.67
2022-12-29T17:55:32.740Z,18.93
2022-12-29T17:58:16.622Z,50.77
2022-12-29T18:00:43.403Z,28.00
2022-12-29T18:03:16.545Z,31.77
2022-12-29T18:05:43.883Z,34.73
2022-12-29T18:08:12.373Z,28.93
2022-12-29T18:10:40.132Z,25.33
2022-12-29T18:13:06.984Z,26.40
2022-12-29T18:15:37.032Z,25.00
2022-12-29T18:18:09.876Z,34.17
2022-12-29T18:20:36.874Z,33.70
2022-12-29T18:23:03.779Z,48.20
2022-12-29T18:25:40.689Z,48.33
2022-12-29T18:28:07.390Z,57.17
2022-12-29T18:30:34.140Z,52.57
2022-12-29T18:33:00.844Z,50.07
2022-12-29T18:35:32.974Z,36.70
2022-12-29T18:37:59.570Z,46.93
2022-12-29T18:40:26.291Z,39.23
2022-12-29T18:42:53.040Z,34.63
2022-12-29T18:45:22.472Z,42.73
2022-12-29T18:47:49.564Z,66.90
2022-12-29T18:50:17.257Z,70.03
2022-12-29T18:52:44.952Z,58.80
2022-12-29T18:55:18.232Z,69.40
2022-12-29T18:57:45.291Z,58.67
2022-12-29T19:00:14.380Z,55.53
2022-12-29T19:02:41.713Z,45.97
2022-12-29T19:05:38.732Z,35.80
2022-12-29T19:08:06.281Z,15.97
2022-12-29T19:10:33.723Z,17.67
2022-12-29T19:13:00.780Z,20.30
2022-12-29T19:15:34.303Z,26.03
2022-12-29T19:20:52.984Z,29.10
2022-12-29T19:23:22.351Z,28.90
2022-12-29T19:25:50.065Z,23.37
2022-12-29T19:28:39.246Z,21.57
2022-12-29T19:31:09.040Z,19.30
2022-12-29T19:33:35.693Z,22.93
2022-12-29T19:36:03.135Z,20.37
2022-12-29T19:38:29.889Z,20.00
2022-12-29T19:40:57.030Z,16.70
2022-12-29T19:43:23.801Z,18.43
2022-12-29T19:45:52.535Z,17.57
2022-12-29T19:48:20.675Z,19.13
2022-12-29T19:50:47.788Z,17.20
2022-12-29T19:53:15.218Z,16.10
2022-12-29T19:55:46.262Z,16.80
2022-12-29T19:58:13.740Z,15.00
2022-12-29T20:00:42.626Z,14.27
2022-12-29T20:03:10.101Z,12.07
2022-12-29T20:05:37.172Z,14.77
2022-12-29T20:08:03.925Z,21.87
2022-12-29T20:10:30.620Z,19.07
2022-12-29T20:12:57.305Z,16.43
2022-12-29T20:15:23.918Z,15.40
2022-12-29T20:20:37.308Z,16.90
2022-12-29T20:23:04.088Z,14.37
2022-12-29T20:25:47.144Z,17.07
2022-12-29T20:28:15.475Z,16.87
2022-12-29T20:30:42.262Z,12.70
2022-12-29T20:33:09.198Z,9.97
2022-12-29T20:35:36.878Z,11.87
2022-12-29T20:38:04.360Z,14.50
2022-12-29T20:40:31.667Z,12.60
2022-12-29T20:42:58.330Z,13.03
2022-12-29T20:45:25.406Z,16.50
2022-12-29T20:47:52.306Z,15.40
2022-12-29T20:50:19.049Z,14.03
2022-12-29T20:52:46.960Z,19.50
2022-12-29T20:55:14.158Z,21.40
2022-12-29T20:58:14.139Z,20.67
2022-12-29T21:00:30.578Z,20.67
2022-12-29T21:02:59.452Z,23.63
2022-12-29T21:05:26.999Z,31.10
2022-12-29T21:07:54.850Z,24.90
2022-12-29T21:10:22.481Z,26.27
2022-12-29T21:12:49.208Z,21.77
2022-12-29T21:15:15.995Z,26.40
2022-12-29T21:17:43.912Z,26.20
2022-12-29T21:20:20.005Z,30.80
2022-12-29T21:22:50.040Z,26.63
2022-12-29T21:25:16.717Z,30.47
2022-12-29T21:27:44.259Z,34.53
2022-12-29T21:30:11.766Z,25.17
2022-12-29T21:32:38.657Z,21.83
2022-12-29T21:35:05.696Z,23.37
2022-12-29T21:37:32.326Z,30.17
2022-12-29T21:39:58.928Z,28.07
2022-12-29T21:42:27.566Z,37.30
2022-12-29T21:45:18.286Z,36.83
2022-12-29T21:48:05.789Z,41.80
2022-12-29T21:50:32.441Z,37.40
2022-12-29T21:52:59.217Z,37.83
2022-12-29T21:55:25.826Z,35.40
2022-12-29T21:58:10.965Z,56.40
2022-12-29T22:00:56.328Z,41.53
2022-12-29T22:03:41.628Z,49.37
2022-12-29T22:06:30.009Z,47.37
2022-12-29T22:09:15.364Z,33.07
2022-12-29T22:12:00.583Z,60.37
2022-12-29T22:14:27.185Z,38.87
2022-12-29T22:16:53.942Z,39.37
2022-12-29T22:19:20.548Z,50.43
2022-12-29T22:21:47.208Z,45.70
2022-12-29T22:24:13.877Z,34.07
2022-12-29T22:26:40.593Z,43.10
2022-12-29T22:29:07.227Z,35.50
2022-12-29T22:31:34.163Z,39.33
2022-12-29T22:34:03.036Z,39.83
2022-12-29T22:36:30.506Z,46.13
2022-12-29T22:38:57.213Z,37.00
2022-12-29T22:41:24.184Z,43.60
2022-12-29T22:43:50.841Z,38.20
2022-12-29T22:46:17.540Z,52.70
2022-12-29T22:48:44.305Z,47.93
2022-12-29T22:51:10.880Z,47.83
2022-12-29T22:53:37.481Z,32.33
2022-12-29T22:56:09.083Z,54.87
2022-12-29T22:58:39.125Z,23.53
2022-12-29T23:01:05.884Z,22.03
2022-12-29T23:03:32.685Z,26.13
2022-12-29T23:06:01.346Z,23.27
2022-12-29T23:08:29.346Z,21.37
2022-12-29T23:10:56.008Z,20.10
2022-12-29T23:13:22.619Z,28.37
2022-12-29T23:15:49.237Z,20.03
2022-12-29T23:18:16.571Z,21.07
2022-12-29T23:20:43.870Z,18.47
2022-12-29T23:23:11.075Z,19.63
2022-12-29T23:25:38.567Z,21.90
2022-12-29T23:28:07.207Z,19.80
2022-12-29T23:30:34.213Z,30.23
2022-12-29T23:33:00.804Z,40.30
2022-12-29T23:35:27.411Z,30.40
2022-12-29T23:37:54.033Z,22.73
2022-12-29T23:40:20.665Z,28.87
2022-12-29T23:42:47.259Z,24.20
2022-12-29T23:45:13.933Z,24.20
2022-12-29T23:47:40.591Z,25.87
2022-12-29T23:50:08.785Z,30.97
2022-12-29T23:52:35.476Z,24.33
2022-12-29T23:55:02.381Z,28.37
2022-12-29T23:57:28.992Z,33.27
2022-12-29T23:59:55.554Z,22.60
